Time;durP1;ratioP1;P1;durP2;ratioP2;P2;SDS_P1;SDS_P2;PMS_P1;PMS_P2;Temp;Humidity;BMP_temperature;BMP_pressure;BME280_temperature;BME280_humidity;BME280_pressure;Samples;Min_cycle;Max_cycle;Signal;HPM_P1;HPM_P2
2021/09/06 00:00:25;;;;;;;12.87;8.33;;;9.80;99.90;;;;;;5068750;28;20568;-78
2021/09/06 00:02:50;;;;;;;12.97;8.50;;;9.80;99.90;;;;;;5069953;28;20182;-78
2021/09/06 00:05:16;;;;;;;15.53;9.30;;;9.60;99.90;;;;;;5068669;28;20240;-77
2021/09/06 00:07:45;;;;;;;11.93;8.60;;;9.70;99.90;;;;;;5068919;28;20257;-78
2021/09/06 00:10:19;;;;;;;17.87;9.47;;;9.50;99.90;;;;;;5067470;28;20210;-79
2021/09/06 00:12:46;;;;;;;12.57;8.47;;;9.30;99.90;;;;;;5068359;28;20250;-79
2021/09/06 00:15:12;;;;;;;13.07;8.93;;;9.30;99.90;;;;;;5049239;28;20283;-79
2021/09/06 00:17:37;;;;;;;13.67;9.40;;;9.30;99.90;;;;;;5068442;28;20217;-78
2021/09/06 00:20:04;;;;;;;14.10;8.60;;;9.30;99.90;;;;;;5049840;28;20225;-80
2021/09/06 00:22:30;;;;;;;16.10;9.13;;;9.40;99.90;;;;;;5067690;28;20182;-79
2021/09/06 00:24:55;;;;;;;11.10;8.13;;;9.50;99.90;;;;;;5067532;28;20181;-77
2021/09/06 00:27:21;;;;;;;13.33;8.87;;;9.40;99.90;;;;;;5042248;28;20173;-81
2021/09/06 00:29:46;;;;;;;10.57;7.57;;;9.40;99.90;;;;;;5068083;28;20182;-79
2021/09/06 00:32:12;;;;;;;12.13;7.90;;;9.40;99.90;;;;;;5050197;28;20205;-79
2021/09/06 00:34:37;;;;;;;11.90;8.30;;;9.50;99.90;;;;;;5065557;28;20647;-79
2021/09/06 00:37:03;;;;;;;13.00;7.83;;;9.50;99.90;;;;;;5067837;28;20694;-79
2021/09/06 00:39:28;;;;;;;16.43;9.30;;;9.50;99.90;;;;;;5067114;28;20193;-78
2021/09/06 00:41:54;;;;;;;11.73;7.60;;;9.50;99.90;;;;;;5066438;28;20181;-79
2021/09/06 00:44:20;;;;;;;12.30;8.40;;;9.50;99.90;;;;;;5066828;28;20197;-77
2021/09/06 00:46:47;;;;;;;12.40;8.50;;;9.40;99.90;;;;;;5066809;28;20263;-79
2021/09/06 00:49:15;;;;;;;12.27;8.50;;;9.30;99.90;;;;;;5066777;28;20174;-79
2021/09/06 00:51:41;;;;;;;10.83;7.90;;;9.30;99.90;;;;;;5049972;28;20631;-81
2021/09/06 00:54:08;;;;;;;13.07;8.03;;;9.30;99.90;;;;;;5068123;28;20269;-78
2021/09/06 00:56:34;;;;;;;9.50;7.27;;;9.30;99.90;;;;;;5066120;28;20181;-80
2021/09/06 00:59:01;;;;;;;11.53;8.07;;;9.40;99.90;;;;;;5050105;28;20198;-78
2021/09/06 01:01:26;;;;;;;10.70;7.93;;;9.40;99.90;;;;;;5067740;28;20205;-78
2021/09/06 01:03:52;;;;;;;11.57;7.60;;;9.30;99.90;;;;;;5067735;28;20178;-78
2021/09/06 01:06:17;;;;;;;12.67;8.67;;;9.30;99.90;;;;;;5050402;28;20182;-78
2021/09/06 01:08:43;;;;;;;13.73;7.53;;;9.30;99.90;;;;;;5050059;28;20281;-78
2021/09/06 01:11:09;;;;;;;11.53;8.00;;;9.20;99.90;;;;;;5067062;28;20205;-78
2021/09/06 01:13:34;;;;;;;8.77;7.03;;;9.10;99.90;;;;;;5065935;28;20213;-78
2021/09/06 01:16:00;;;;;;;10.43;7.50;;;9.10;99.90;;;;;;5049846;28;20197;-79
2021/09/06 01:18:25;;;;;;;12.13;7.87;;;9.10;99.90;;;;;;5067902;28;20181;-78
2021/09/06 01:20:51;;;;;;;12.03;8.27;;;9.00;99.90;;;;;;5066896;28;20251;-78
2021/09/06 01:23:17;;;;;;;10.13;7.57;;;9.00;99.90;;;;;;5067719;28;20632;-80
2021/09/06 01:25:42;;;;;;;10.00;7.20;;;9.00;99.90;;;;;;5067221;28;20208;-79
2021/09/06 01:28:08;;;;;;;8.03;5.97;;;9.00;99.90;;;;;;5049711;28;20200;-78
2021/09/06 01:30:33;;;;;;;10.00;6.87;;;9.00;99.90;;;;;;5067157;28;20205;-78
2021/09/06 01:32:59;;;;;;;9.80;7.10;;;9.10;99.90;;;;;;5049540;28;20210;-78
2021/09/06 01:35:25;;;;;;;8.93;6.93;;;9.00;99.90;;;;;;5048481;28;20201;-78
2021/09/06 01:37:50;;;;;;;11.83;7.77;;;9.00;99.90;;;;;;5066420;28;20173;-79
2021/09/06 01:40:18;;;;;;;12.63;7.23;;;9.00;99.90;;;;;;5064801;28;20283;-79
2021/09/06 01:42:44;;;;;;;8.27;6.17;;;9.10;99.90;;;;;;5065886;28;20174;-78
2021/09/06 01:45:10;;;;;;;8.20;5.70;;;9.10;99.90;;;;;;5064808;28;20200;-79
2021/09/06 01:47:36;;;;;;;8.47;6.20;;;9.10;99.90;;;;;;5047281;28;20686;-78
2021/09/06 01:50:02;;;;;;;8.70;6.17;;;8.90;99.90;;;;;;5065043;28;20212;-79
2021/09/06 01:52:27;;;;;;;9.93;6.37;;;9.00;99.90;;;;;;5065483;28;20208;-78
2021/09/06 01:54:53;;;;;;;8.97;6.67;;;9.00;99.90;;;;;;5065292;28;20174;-78
2021/09/06 01:57:18;;;;;;;9.40;6.53;;;9.10;99.90;;;;;;5047404;28;20177;-78
2021/09/06 01:59:44;;;;;;;8.10;6.33;;;9.00;99.90;;;;;;5047635;28;20788;-79
2021/09/06 02:02:10;;;;;;;8.13;5.83;;;8.90;99.90;;;;;;5047788;28;20186;-79
2021/09/06 02:04:35;;;;;;;9.47;6.87;;;8.90;99.90;;;;;;5064895;28;20185;-78
2021/09/06 02:07:01;;;;;;;7.70;6.10;;;8.90;99.90;;;;;;5065108;28;20193;-79
2021/09/06 02:09:26;;;;;;;7.93;6.37;;;8.80;99.90;;;;;;5055242;28;20193;-79
2021/09/06 02:11:52;;;;;;;8.60;6.10;;;8.70;99.90;;;;;;5047074;28;20209;-78
2021/09/06 02:14:18;;;;;;;8.87;6.83;;;8.90;99.90;;;;;;5065366;28;20231;-78
2021/09/06 02:16:43;;;;;;;10.40;6.73;;;8.80;99.90;;;;;;5066395;28;20597;-77
2021/09/06 02:19:09;;;;;;;10.27;6.57;;;8.80;99.90;;;;;;5067919;28;20190;-81
2021/09/06 02:21:34;;;;;;;10.43;7.40;;;8.80;99.90;;;;;;5067495;28;20220;-80
2021/09/06 02:24:02;;;;;;;10.67;7.33;;;8.80;99.90;;;;;;5066886;28;20190;-82
2021/09/06 02:26:28;;;;;;;10.17;7.20;;;8.80;99.90;;;;;;5050106;28;20181;-79
2021/09/06 02:28:54;;;;;;;9.23;7.17;;;8.80;99.90;;;;;;5049377;28;20193;-78
2021/09/06 02:31:20;;;;;;;9.93;7.50;;;8.70;99.90;;;;;;5065016;28;20225;-78
2021/09/06 02:33:45;;;;;;;13.30;8.13;;;8.60;99.90;;;;;;5066394;28;20177;-78
2021/09/06 02:36:11;;;;;;;10.77;7.60;;;8.70;99.90;;;;;;5047405;28;20178;-78
2021/09/06 02:38:37;;;;;;;10.03;6.93;;;8.70;99.90;;;;;;5065289;28;20201;-77
2021/09/06 02:41:03;;;;;;;9.83;6.83;;;8.80;99.90;;;;;;5047682;28;20723;-79
2021/09/06 02:43:28;;;;;;;9.07;6.60;;;8.80;99.90;;;;;;5066510;28;20178;-80
2021/09/06 02:45:54;;;;;;;9.57;6.83;;;8.90;99.90;;;;;;5064749;28;20246;-80
2021/09/06 02:48:19;;;;;;;9.40;7.13;;;9.00;99.90;;;;;;5064647;28;20223;-80
2021/09/06 02:50:45;;;;;;;11.83;8.00;;;9.10;99.90;;;;;;5067251;28;20205;-80
2021/09/06 02:53:10;;;;;;;9.70;6.90;;;9.10;99.90;;;;;;5049900;28;20833;-80
2021/09/06 02:55:36;;;;;;;11.97;7.60;;;9.20;99.90;;;;;;5066930;28;20233;-79
2021/09/06 02:58:02;;;;;;;10.63;6.53;;;9.20;99.90;;;;;;5049897;28;20181;-79
2021/09/06 03:00:27;;;;;;;11.47;7.50;;;9.30;99.90;;;;;;5052582;28;20209;-79
2021/09/06 03:02:53;;;;;;;10.03;6.67;;;9.30;99.90;;;;;;5053718;28;20185;-79
2021/09/06 03:05:19;;;;;;;9.57;6.33;;;9.30;99.90;;;;;;5070478;28;20268;-79
2021/09/06 03:07:44;;;;;;;13.03;7.47;;;9.30;99.90;;;;;;5071525;28;20531;-80
2021/09/06 03:10:10;;;;;;;14.07;8.20;;;9.30;99.90;;;;;;5052183;28;20653;-78
2021/09/06 03:12:36;;;;;;;26.67;9.03;;;9.40;99.90;;;;;;5053098;28;20235;-80
2021/09/06 03:15:01;;;;;;;12.07;7.40;;;9.50;99.90;;;;;;5070292;28;20651;-79
2021/09/06 03:17:27;;;;;;;16.43;9.43;;;9.40;99.90;;;;;;5053111;28;20309;-78
2021/09/06 03:19:52;;;;;;;20.27;8.73;;;9.40;99.90;;;;;;5070781;28;20193;-79
2021/09/06 03:22:19;;;;;;;18.63;9.30;;;9.10;99.90;;;;;;5070471;28;20208;-79
2021/09/06 03:24:45;;;;;;;16.43;8.90;;;9.00;99.90;;;;;;5070943;28;21203;-79
2021/09/06 03:27:10;;;;;;;21.93;9.27;;;9.00;99.90;;;;;;5070859;28;20194;-79
2021/09/06 03:29:37;;;;;;;17.23;9.43;;;8.90;99.90;;;;;;5071355;28;20199;-80
2021/09/06 03:32:03;;;;;;;14.90;8.67;;;8.90;99.90;;;;;;5069476;28;20213;-79
2021/09/06 03:34:28;;;;;;;13.13;7.87;;;9.00;99.90;;;;;;5052540;28;20193;-80
2021/09/06 03:36:54;;;;;;;13.57;8.50;;;8.90;99.90;;;;;;5052354;28;20264;-79
2021/09/06 03:39:19;;;;;;;14.77;7.90;;;8.80;99.90;;;;;;5050907;28;20205;-80
2021/09/06 03:41:46;;;;;;;12.00;7.03;;;8.90;99.90;;;;;;5052333;28;20194;-80
2021/09/06 03:44:12;;;;;;;9.97;6.33;;;8.90;99.90;;;;;;5067937;28;20189;-79
2021/09/06 03:46:37;;;;;;;12.47;6.60;;;9.00;99.90;;;;;;5051130;28;20178;-78
2021/09/06 03:49:03;;;;;;;8.90;6.30;;;9.00;99.90;;;;;;5069387;28;20185;-79
2021/09/06 03:51:28;;;;;;;11.43;6.97;;;8.90;99.90;;;;;;5051567;28;20351;-81
2021/09/06 03:53:54;;;;;;;13.27;8.10;;;8.80;99.90;;;;;;5051370;28;20182;-79
2021/09/06 03:56:20;;;;;;;11.57;7.23;;;8.80;99.90;;;;;;5051366;28;20178;-80
2021/09/06 03:58:45;;;;;;;11.40;6.70;;;8.80;99.90;;;;;;5051949;28;20178;-78
2021/09/06 04:01:11;;;;;;;13.30;8.43;;;8.80;99.90;;;;;;5068589;28;20211;-80
2021/09/06 04:03:36;;;;;;;10.83;8.00;;;8.80;99.90;;;;;;5070195;28;20178;-78
2021/09/06 04:06:03;;;;;;;10.30;7.30;;;8.70;99.90;;;;;;5050378;28;20189;-79
2021/09/06 04:08:29;;;;;;;11.27;6.90;;;8.70;99.90;;;;;;5069073;28;20173;-80
2021/09/06 04:10:54;;;;;;;10.53;7.53;;;8.80;99.90;;;;;;5068237;28;20205;-80
2021/09/06 04:13:20;;;;;;;11.77;6.37;;;8.80;99.90;;;;;;5068567;28;20566;-79
2021/09/06 04:15:47;;;;;;;11.83;6.83;;;8.90;99.90;;;;;;5050688;28;20196;-77
2021/09/06 04:18:16;;;;;;;12.70;6.63;;;8.90;99.90;;;;;;5050719;28;20236;-80
2021/09/06 04:20:42;;;;;;;11.00;7.47;;;9.00;99.90;;;;;;5050095;28;20687;-78
2021/09/06 04:23:08;;;;;;;12.27;7.43;;;9.00;99.90;;;;;;5051106;28;20185;-77
2021/09/06 04:25:34;;;;;;;10.80;6.97;;;9.20;99.90;;;;;;5068380;28;20713;-80
2021/09/06 04:28:00;;;;;;;10.50;6.00;;;9.30;99.90;;;;;;5068067;28;20181;-78
2021/09/06 04:30:25;;;;;;;9.03;5.50;;;9.30;99.90;;;;;;5050617;28;20208;-80
2021/09/06 04:32:51;;;;;;;8.13;5.37;;;9.20;99.90;;;;;;5050559;28;20197;-79
2021/09/06 04:35:16;;;;;;;8.80;6.00;;;9.20;99.90;;;;;;5050093;28;20178;-80
2021/09/06 04:37:42;;;;;;;9.47;5.60;;;9.20;99.90;;;;;;5050590;28;20269;-80
2021/09/06 04:40:08;;;;;;;11.53;6.10;;;9.30;99.90;;;;;;5049410;28;20194;-80
2021/09/06 04:42:34;;;;;;;7.67;5.73;;;9.20;99.90;;;;;;5050404;28;20264;-79
2021/09/06 04:45:00;;;;;;;8.80;6.10;;;9.20;99.90;;;;;;5049840;28;20680;-80
2021/09/06 04:47:25;;;;;;;9.37;6.73;;;9.30;99.90;;;;;;5050268;28;20188;-77
2021/09/06 04:49:51;;;;;;;10.17;6.10;;;9.30;99.90;;;;;;5068132;28;20201;-78
2021/09/06 04:52:17;;;;;;;13.07;6.47;;;9.40;99.90;;;;;;5067447;28;20201;-80
2021/09/06 04:54:42;;;;;;;10.37;7.03;;;9.50;99.90;;;;;;5068139;28;20647;-79
2021/09/06 04:57:08;;;;;;;12.70;6.00;;;9.60;99.90;;;;;;5067195;28;20684;-78
2021/09/06 04:59:33;;;;;;;8.63;6.73;;;9.70;99.90;;;;;;5068246;28;20185;-77
2021/09/06 05:01:59;;;;;;;14.50;7.37;;;9.70;99.90;;;;;;5049086;28;20662;-78
2021/09/06 05:04:24;;;;;;;9.33;6.03;;;9.70;99.90;;;;;;5067876;28;20204;-78
2021/09/06 05:06:50;;;;;;;12.43;7.87;;;9.70;99.90;;;;;;5067477;28;20209;-78
2021/09/06 05:09:15;;;;;;;13.83;7.57;;;9.60;99.90;;;;;;5067449;28;20277;-78
2021/09/06 05:11:41;;;;;;;12.53;6.50;;;9.60;99.90;;;;;;5049544;28;20206;-78
2021/09/06 05:14:06;;;;;;;11.63;7.47;;;9.60;99.90;;;;;;5066959;28;20491;-79
2021/09/06 05:16:32;;;;;;;9.90;6.67;;;9.60;99.90;;;;;;5067044;28;20209;-78
2021/09/06 05:18:57;;;;;;;10.97;7.00;;;9.60;99.90;;;;;;5065586;28;20197;-79
2021/09/06 05:21:23;;;;;;;11.93;6.67;;;9.60;99.90;;;;;;5057469;28;20205;-78
2021/09/06 05:23:49;;;;;;;10.70;6.00;;;9.50;99.90;;;;;;5067222;28;21153;-79
2021/09/06 05:26:14;;;;;;;9.77;6.17;;;9.60;99.90;;;;;;5066345;28;20196;-78
2021/09/06 05:28:40;;;;;;;11.37;5.67;;;9.70;99.90;;;;;;5070764;28;20177;-79
2021/09/06 05:31:08;;;;;;;11.20;5.43;;;9.60;99.90;;;;;;5053033;28;20284;-81
2021/09/06 05:33:34;;;;;;;7.70;6.07;;;9.60;99.90;;;;;;5065634;28;20201;-78
2021/09/06 05:36:00;;;;;;;9.17;6.07;;;9.60;99.90;;;;;;5065023;28;20212;-78
2021/09/06 05:38:26;;;;;;;9.57;6.63;;;9.80;99.90;;;;;;5046951;28;20194;-79
2021/09/06 05:40:51;;;;;;;9.53;6.07;;;10.00;99.90;;;;;;5047873;28;20198;-80
2021/09/06 05:43:17;;;;;;;9.10;6.27;;;9.90;99.90;;;;;;5064062;28;20182;-79
2021/09/06 05:45:42;;;;;;;11.10;5.90;;;9.90;99.90;;;;;;5065006;28;20182;-81
2021/09/06 05:48:08;;;;;;;8.57;6.13;;;10.10;99.90;;;;;;5064358;28;20186;-77
2021/09/06 05:50:34;;;;;;;8.87;5.37;;;10.20;99.90;;;;;;5063165;28;20262;-79
2021/09/06 05:52:59;;;;;;;6.88;5.15;;;10.30;99.90;;;;;;5065375;28;20338;-81
2021/09/06 05:55:25;;;;;;;11.52;5.95;;;10.40;99.90;;;;;;5065208;28;20689;-80
2021/09/06 05:57:52;;;;;;;7.25;5.15;;;10.60;99.90;;;;;;5065310;28;20178;-81
2021/09/06 06:00:18;;;;;;;8.23;5.68;;;10.60;99.90;;;;;;5046039;28;20201;-80
2021/09/06 06:02:45;;;;;;;7.83;5.77;;;10.50;99.90;;;;;;5045694;28;20185;-80
2021/09/06 06:05:11;;;;;;;7.43;5.33;;;10.30;99.90;;;;;;5065486;28;20196;-78
2021/09/06 06:07:37;;;;;;;9.57;5.93;;;10.40;99.90;;;;;;5047842;28;20192;-79
2021/09/06 06:10:03;;;;;;;12.07;5.65;;;10.50;99.90;;;;;;5065170;28;20292;-78
2021/09/06 06:12:30;;;;;;;8.07;5.72;;;10.70;99.90;;;;;;5048129;28;20587;-80
2021/09/06 06:14:57;;;;;;;7.80;6.00;;;10.80;99.90;;;;;;5065471;28;20174;-78
2021/09/06 06:17:23;;;;;;;6.17;5.00;;;10.70;99.90;;;;;;5046858;28;20224;-78
2021/09/06 06:19:48;;;;;;;7.28;5.72;;;10.60;99.90;;;;;;5047550;28;20626;-81
2021/09/06 06:22:14;;;;;;;8.02;5.45;;;10.80;99.90;;;;;;5066172;28;20269;-81
2021/09/06 06:24:40;;;;;;;9.02;5.68;;;10.90;99.90;;;;;;5064790;28;20238;-78
2021/09/06 06:27:06;;;;;;;6.72;5.35;;;11.10;99.90;;;;;;5064601;28;20221;-79
2021/09/06 06:29:31;;;;;;;6.88;5.03;;;11.10;99.90;;;;;;5066314;28;21297;-78
2021/09/06 06:31:57;;;;;;;7.65;5.57;;;11.30;99.90;;;;;;5048328;28;20225;-77
2021/09/06 06:34:23;;;;;;;7.00;5.07;;;11.50;99.90;;;;;;5047252;28;20182;-79
2021/09/06 06:36:48;;;;;;;9.10;5.55;;;11.70;99.90;;;;;;5043834;28;20174;-76
2021/09/06 06:39:15;;;;;;;7.25;5.47;;;11.90;99.90;;;;;;5061802;28;21123;-76
2021/09/06 06:41:41;;;;;;;7.45;5.38;;;12.00;99.90;;;;;;5062058;28;20202;-78
2021/09/06 06:44:07;;;;;;;6.93;5.20;;;12.20;99.90;;;;;;5041911;28;20766;-81
2021/09/06 06:46:32;;;;;;;7.30;5.35;;;12.20;99.90;;;;;;5053717;28;20178;-79
2021/09/06 06:48:58;;;;;;;7.80;5.55;;;12.30;99.90;;;;;;5056032;28;20274;-77
2021/09/06 06:51:24;;;;;;;8.48;5.13;;;12.50;99.90;;;;;;5065773;28;20254;-78
2021/09/06 06:53:49;;;;;;;7.38;5.57;;;12.60;99.90;;;;;;5044528;28;20639;-81
2021/09/06 06:56:15;;;;;;;7.63;5.30;;;12.50;99.90;;;;;;5046259;28;20188;-78
2021/09/06 06:58:40;;;;;;;8.45;6.10;;;12.50;99.90;;;;;;5045149;28;20182;-80
2021/09/06 07:01:06;;;;;;;7.22;5.63;;;12.70;99.90;;;;;;5045306;28;20721;-80
2021/09/06 07:03:32;;;;;;;8.43;5.65;;;12.90;99.90;;;;;;5056452;28;20181;-79
2021/09/06 07:05:57;;;;;;;6.25;5.05;;;13.10;99.90;;;;;;5047272;28;20213;-80
2021/09/06 07:08:23;;;;;;;7.53;5.63;;;13.10;99.90;;;;;;5062272;28;20181;-79
2021/09/06 07:10:48;;;;;;;7.22;5.47;;;13.20;99.90;;;;;;5045559;28;20292;-79
2021/09/06 07:13:14;;;;;;;7.60;5.20;;;13.40;99.90;;;;;;5043541;28;20247;-80
2021/09/06 07:15:41;;;;;;;8.05;5.05;;;13.50;99.90;;;;;;5043980;28;20721;-78
2021/09/06 07:18:08;;;;;;;6.15;4.88;;;13.50;99.90;;;;;;5063780;28;20196;-80
2021/09/06 07:20:34;;;;;;;7.25;5.25;;;13.60;99.90;;;;;;5066022;28;20239;-78
2021/09/06 07:23:00;;;;;;;7.53;5.13;;;13.70;99.90;;;;;;5065554;28;20207;-79
2021/09/06 07:25:26;;;;;;;6.25;4.88;;;13.90;99.90;;;;;;5063892;28;20177;-81
2021/09/06 07:27:52;;;;;;;5.10;3.97;;;14.10;99.90;;;;;;5062301;28;20409;-79
2021/09/06 07:30:17;;;;;;;6.13;4.20;;;14.20;99.90;;;;;;5046089;28;20240;-81
2021/09/06 07:32:44;;;;;;;6.75;5.32;;;14.00;99.90;;;;;;5065152;28;20262;-81
2021/09/06 07:35:11;;;;;;;6.00;4.55;;;14.20;99.90;;;;;;5063831;28;20586;-79
2021/09/06 07:37:37;;;;;;;6.03;4.55;;;14.40;99.90;;;;;;5064979;28;20722;-81
2021/09/06 07:40:03;;;;;;;6.03;4.63;;;14.50;99.90;;;;;;5061185;28;20201;-78
2021/09/06 07:42:29;;;;;;;6.72;4.95;;;14.60;99.90;;;;;;5059952;28;20652;-78
2021/09/06 07:44:54;;;;;;;6.80;4.45;;;14.60;99.90;;;;;;5062158;28;20186;-78
2021/09/06 07:47:20;;;;;;;6.15;4.47;;;14.80;99.90;;;;;;5050402;28;20947;-81
2021/09/06 07:49:47;;;;;;;7.13;5.35;;;14.90;99.90;;;;;;5050688;28;20177;-80
2021/09/06 07:52:13;;;;;;;6.65;4.60;;;15.10;99.90;;;;;;5050531;28;20304;-78
2021/09/06 07:54:38;;;;;;;8.38;5.20;;;15.20;99.90;;;;;;5066200;28;20578;-79
2021/09/06 07:57:04;;;;;;;7.25;5.50;;;15.40;99.90;;;;;;5068934;28;20185;-79
2021/09/06 07:59:39;;;;;;;8.02;5.57;;;15.50;99.90;;;;;;5068625;28;20205;-80
2021/09/06 08:02:05;;;;;;;8.63;6.38;;;15.70;99.90;;;;;;5066236;28;20181;-79
2021/09/06 08:04:30;;;;;;;9.55;6.43;;;15.80;99.90;;;;;;5049285;28;20200;-77
2021/09/06 08:06:56;;;;;;;10.95;6.68;;;15.80;99.90;;;;;;5050828;28;20178;-79
2021/09/06 08:09:22;;;;;;;8.88;6.90;;;16.00;99.90;;;;;;5066521;28;20186;-78
2021/09/06 08:11:48;;;;;;;10.88;7.43;;;16.00;99.90;;;;;;5064590;28;20654;-80
2021/09/06 08:14:15;;;;;;;12.57;7.88;;;16.10;99.90;;;;;;5064530;28;21211;-78
2021/09/06 08:16:41;;;;;;;11.95;7.85;;;16.20;99.90;;;;;;5066660;28;20206;-78
2021/09/06 08:19:07;;;;;;;12.82;7.55;;;16.30;99.90;;;;;;5068556;28;20189;-78
2021/09/06 08:21:32;;;;;;;10.95;7.90;;;16.40;99.90;;;;;;5067726;28;20211;-79
2021/09/06 08:23:58;;;;;;;11.93;8.77;;;16.50;99.90;;;;;;5052553;28;20185;-78
2021/09/06 08:26:25;;;;;;;12.07;7.55;;;16.60;99.90;;;;;;5048668;28;20270;-78
2021/09/06 08:28:51;;;;;;;13.85;8.40;;;16.60;99.90;;;;;;5067453;28;20639;-78
2021/09/06 08:31:17;;;;;;;12.15;8.32;;;16.80;99.90;;;;;;5046521;28;20283;-78
2021/09/06 08:33:43;;;;;;;11.30;6.93;;;16.90;99.90;;;;;;5047041;28;20205;-79
2021/09/06 08:36:11;;;;;;;10.88;7.65;;;17.10;99.90;;;;;;5047671;28;20258;-78
2021/09/06 08:38:37;;;;;;;10.68;7.32;;;17.20;99.90;;;;;;5062687;28;20201;-78
2021/09/06 08:41:04;;;;;;;12.18;7.78;;;17.40;99.90;;;;;;5044624;28;20213;-78
2021/09/06 08:43:32;;;;;;;11.18;7.68;;;17.60;99.90;;;;;;5065642;28;20193;-78
2021/09/06 08:45:59;;;;;;;11.63;8.32;;;17.70;99.90;;;;;;5065498;28;20182;-80
2021/09/06 08:48:25;;;;;;;11.10;8.05;;;17.80;99.90;;;;;;5062712;28;20409;-79
2021/09/06 08:50:51;;;;;;;9.95;6.97;;;17.90;99.90;;;;;;5046870;28;20208;-79
2021/09/06 08:53:17;;;;;;;10.13;7.25;;;18.00;99.90;;;;;;5047196;28;20215;-79
2021/09/06 08:55:43;;;;;;;9.48;7.35;;;17.90;99.90;;;;;;5064852;28;20541;-78
2021/09/06 08:58:09;;;;;;;10.40;7.07;;;18.00;99.90;;;;;;5063758;28;20173;-79
2021/09/06 09:00:34;;;;;;;11.07;7.25;;;18.20;99.90;;;;;;5064545;28;20252;-77
2021/09/06 09:03:00;;;;;;;9.45;6.85;;;18.50;99.90;;;;;;5047007;28;20208;-78
2021/09/06 09:05:26;;;;;;;10.18;6.53;;;18.70;99.90;;;;;;5046457;28;20189;-80
2021/09/06 09:07:59;;;;;;;8.90;6.13;;;18.90;99.90;;;;;;5065064;28;20198;-78
2021/09/06 09:10:27;;;;;;;8.07;6.35;;;19.10;99.90;;;;;;5046866;28;20212;-79
2021/09/06 09:13:03;;;;;;;9.43;6.00;;;19.20;99.90;;;;;;5045873;28;20829;-79
2021/09/06 09:15:29;;;;;;;9.00;6.57;;;19.20;99.90;;;;;;5064339;28;20184;-78
2021/09/06 09:17:54;;;;;;;10.15;6.60;;;19.30;99.90;;;;;;5047278;28;20181;-79
2021/09/06 09:20:20;;;;;;;8.68;6.60;;;19.30;99.90;;;;;;5046491;28;20288;-79
2021/09/06 09:22:46;;;;;;;8.75;6.60;;;19.40;99.90;;;;;;5064263;28;20395;-78
2021/09/06 09:25:12;;;;;;;10.73;7.13;;;19.70;99.90;;;;;;5062353;28;20221;-78
2021/09/06 09:27:47;;;;;;;9.88;6.65;;;19.70;99.90;;;;;;5046874;28;20519;-78
2021/09/06 09:30:24;;;;;;;10.07;6.55;;;19.90;99.90;;;;;;5062184;28;20201;-78
2021/09/06 09:33:22;;;;;;;9.38;6.68;;;19.90;99.90;;;;;;5046341;28;20892;-78
2021/09/06 09:35:49;;;;;;;8.93;6.43;;;19.80;99.90;;;;;;5029761;28;20193;-78
2021/09/06 09:38:14;;;;;;;10.85;7.28;;;20.00;99.90;;;;;;5063178;28;20454;-78
2021/09/06 09:40:42;;;;;;;9.80;6.15;;;20.10;99.90;;;;;;5063157;28;20267;-78
2021/09/06 09:43:09;;;;;;;10.35;7.18;;;20.30;99.90;;;;;;5063913;28;20189;-78
2021/09/06 09:45:35;;;;;;;10.82;7.22;;;20.40;99.90;;;;;;5063472;28;20448;-76
2021/09/06 09:48:03;;;;;;;9.77;6.60;;;20.40;99.90;;;;;;5063666;28;20593;-79
2021/09/06 09:50:31;;;;;;;11.77;7.57;;;20.20;99.90;;;;;;5064140;28;20208;-78
2021/09/06 09:52:58;;;;;;;12.02;7.72;;;20.20;99.90;;;;;;5045777;28;20568;-78
2021/09/06 09:55:25;;;;;;;9.93;7.15;;;20.30;99.90;;;;;;5063627;28;20360;-78
2021/09/06 09:57:51;;;;;;;8.63;5.53;;;20.50;99.90;;;;;;5045965;28;20296;-78
2021/09/06 10:00:17;;;;;;;8.70;6.13;;;20.80;99.90;;;;;;5063637;28;20198;-79
2021/09/06 10:02:52;;;;;;;10.05;6.70;;;21.00;99.90;;;;;;5063634;28;20311;-77
2021/09/06 10:05:22;;;;;;;9.27;6.80;;;21.20;99.90;;;;;;5045066;28;20670;-78
2021/09/06 10:07:49;;;;;;;9.50;6.57;;;21.30;99.90;;;;;;5063082;28;20226;-77
2021/09/06 10:10:21;;;;;;;12.20;7.03;;;21.30;99.90;;;;;;5045269;28;20445;-79
2021/09/06 10:12:49;;;;;;;10.75;6.78;;;21.30;99.90;;;;;;5062143;28;20613;-79
2021/09/06 10:15:15;;;;;;;9.13;6.15;;;21.40;99.90;;;;;;5062427;28;20459;-79
2021/09/06 10:17:48;;;;;;;10.38;7.88;;;21.30;99.90;;;;;;5045848;28;20192;-78
2021/09/06 10:20:13;;;;;;;9.23;6.78;;;21.40;99.90;;;;;;5063097;28;20292;-79
2021/09/06 10:22:46;;;;;;;10.10;6.30;;;21.70;99.90;;;;;;5063159;28;20269;-79
2021/09/06 10:25:16;;;;;;;11.75;7.80;;;21.70;99.90;;;;;;5062274;28;20238;-79
2021/09/06 10:28:03;;;;;;;11.88;7.85;;;21.70;99.90;;;;;;5062782;28;20183;-79
2021/09/06 10:30:50;;;;;;;9.85;7.45;;;21.70;99.90;;;;;;5062917;28;20224;-78
2021/09/06 10:33:37;;;;;;;10.45;7.40;;;21.70;99.90;;;;;;5044448;28;20204;-79
2021/09/06 10:36:20;;;;;;;10.32;7.53;;;21.90;99.90;;;;;;5062306;28;20212;-78
2021/09/06 10:39:00;;;;;;;11.70;7.90;;;22.00;99.90;;;;;;5045456;28;20182;-81
2021/09/06 10:41:26;;;;;;;11.20;7.03;;;22.00;99.90;;;;;;5061654;28;20213;-80
2021/09/06 10:43:53;;;;;;;8.70;6.35;;;21.90;99.90;;;;;;5062569;28;20663;-80
2021/09/06 10:46:22;;;;;;;9.05;6.97;;;22.00;99.90;;;;;;5062332;28;20272;-79
2021/09/06 10:48:49;;;;;;;11.32;7.28;;;22.30;99.90;;;;;;5062630;28;20656;-79
2021/09/06 10:51:22;;;;;;;13.50;7.43;;;22.40;99.90;;;;;;5061890;28;20206;-80
2021/09/06 10:53:52;;;;;;;9.50;7.78;;;22.50;99.90;;;;;;5044415;28;20216;-78
2021/09/06 10:56:24;;;;;;;11.57;7.93;;;22.70;99.90;;;;;;5044437;28;20181;-80
2021/09/06 10:58:50;;;;;;;11.25;7.93;;;22.60;99.90;;;;;;5044129;28;20180;-78
2021/09/06 11:01:16;;;;;;;10.65;7.78;;;22.30;99.90;;;;;;5061902;28;20213;-78
2021/09/06 11:03:42;;;;;;;11.48;8.07;;;22.20;99.90;;;;;;5062379;28;20586;-79
2021/09/06 11:06:08;;;;;;;10.88;7.82;;;22.20;99.90;;;;;;5061797;28;20181;-79
2021/09/06 11:08:35;;;;;;;10.32;7.68;;;22.30;99.90;;;;;;5061576;28;20284;-77
2021/09/06 11:11:03;;;;;;;11.05;7.70;;;22.60;99.90;;;;;;5061437;28;20213;-81
2021/09/06 11:13:35;;;;;;;10.38;7.90;;;22.70;99.90;;;;;;5043704;28;20254;-78
2021/09/06 11:16:05;;;;;;;12.13;7.40;;;23.10;99.90;;;;;;5043263;28;20194;-78
2021/09/06 11:18:37;;;;;;;11.90;8.65;;;23.20;99.90;;;;;;5062382;28;20275;-77
2021/09/06 11:21:05;;;;;;;11.65;7.88;;;23.10;99.90;;;;;;5063403;28;20563;-78
2021/09/06 11:23:33;;;;;;;16.42;9.05;;;23.10;99.90;;;;;;5065714;28;20805;-79
2021/09/06 11:25:59;;;;;;;11.20;8.10;;;23.30;99.90;;;;;;5064694;28;20231;-78
2021/09/06 11:28:25;;;;;;;12.75;8.52;;;23.40;99.90;;;;;;5066054;28;20224;-80
2021/09/06 11:30:51;;;;;;;12.32;9.27;;;23.40;99.90;;;;;;5066175;28;20206;-81
2021/09/06 11:33:17;;;;;;;14.15;9.77;;;23.60;99.90;;;;;;5065755;28;20776;-80
2021/09/06 11:35:45;;;;;;;10.50;8.23;;;23.50;99.90;;;;;;5065188;28;20264;-80
2021/09/06 11:38:13;;;;;;;13.18;8.23;;;23.60;99.90;;;;;;5049017;28;20178;-78
2021/09/06 11:40:41;;;;;;;12.07;8.82;;;23.60;99.90;;;;;;5048670;28;20288;-80
2021/09/06 11:43:08;;;;;;;13.45;8.77;;;23.20;99.90;;;;;;5066176;28;20185;-79
2021/09/06 11:45:35;;;;;;;13.38;8.57;;;23.30;99.90;;;;;;5066258;28;20193;-78
2021/09/06 11:48:02;;;;;;;11.57;9.10;;;23.10;99.90;;;;;;5048132;28;20240;-78
2021/09/06 11:50:33;;;;;;;12.52;8.40;;;22.90;99.90;;;;;;5048409;28;20306;-80
2021/09/06 11:53:02;;;;;;;10.95;8.45;;;22.70;99.90;;;;;;5066004;28;20204;-79
2021/09/06 11:55:28;;;;;;;13.07;8.55;;;22.70;99.90;;;;;;5047981;28;20587;-78
2021/09/06 11:58:07;;;;;;;10.88;7.93;;;22.70;99.90;;;;;;5065821;28;20315;-81
2021/09/06 12:00:38;;;;;;;11.73;7.80;;;22.60;99.90;;;;;;5066155;28;20208;-79
2021/09/06 12:03:04;;;;;;;10.60;7.68;;;22.50;99.90;;;;;;5048161;28;20181;-79
2021/09/06 12:05:48;;;;;;;12.18;8.30;;;22.80;99.90;;;;;;5047496;28;20255;-80
2021/09/06 12:08:16;;;;;;;11.45;7.95;;;22.80;99.90;;;;;;5047230;28;20188;-81
2021/09/06 12:10:44;;;;;;;12.20;8.20;;;23.00;99.90;;;;;;5047639;28;20212;-80
2021/09/06 12:13:18;;;;;;;10.18;7.43;;;23.00;99.90;;;;;;5048097;28;20569;-79
2021/09/06 12:15:58;;;;;;;11.77;8.77;;;23.00;99.90;;;;;;5065766;28;20506;-78
2021/09/06 12:18:33;;;;;;;9.60;7.45;;;23.10;99.90;;;;;;5065805;28;20173;-78
2021/09/06 12:21:04;;;;;;;10.52;7.47;;;23.10;99.90;;;;;;5066247;28;20201;-80
2021/09/06 12:23:36;;;;;;;10.40;7.35;;;23.30;99.90;;;;;;5065721;28;20184;-78
2021/09/06 12:26:02;;;;;;;12.32;7.40;;;23.10;99.90;;;;;;5065780;28;20269;-80
2021/09/06 12:28:28;;;;;;;9.80;7.45;;;23.10;99.90;;;;;;5065865;28;20235;-79
2021/09/06 12:30:59;;;;;;;11.07;7.30;;;23.20;99.90;;;;;;5065270;28;20675;-79
2021/09/06 12:33:26;;;;;;;11.73;7.82;;;23.20;99.90;;;;;;5065056;28;20233;-80
2021/09/06 12:35:53;;;;;;;10.07;7.80;;;23.20;99.90;;;;;;5065949;28;20182;-79
2021/09/06 12:38:18;;;;;;;10.73;8.10;;;23.50;99.90;;;;;;5065102;28;20614;-80
2021/09/06 12:40:44;;;;;;;11.02;7.63;;;23.40;99.90;;;;;;5065724;28;20281;-79
2021/09/06 12:43:10;;;;;;;10.30;7.38;;;23.50;99.90;;;;;;5064748;28;20185;-78